createdAt,value
2023-03-15T00:02:03.250Z,3.00
2023-03-15T00:07:07.325Z,3.06
2023-03-15T00:12:11.510Z,3.01
2023-03-15T00:17:15.692Z,2.95
2023-03-15T00:22:19.797Z,2.89
2023-03-15T00:27:23.984Z,2.86
2023-03-15T00:32:28.199Z,2.81
2023-03-15T00:37:32.301Z,2.86
2023-03-15T00:42:36.509Z,2.95
2023-03-15T00:47:40.762Z,3.03
2023-03-15T00:52:44.786Z,3.09
2023-03-15T00:57:47.107Z,3.11
2023-03-15T01:02:51.326Z,3.00
2023-03-15T01:07:55.456Z,2.85
2023-03-15T01:12:59.577Z,2.74
2023-03-15T01:18:03.754Z,2.64
2023-03-15T01:23:08.031Z,2.62
2023-03-15T01:28:12.067Z,2.52
2023-03-15T01:33:16.230Z,2.45
2023-03-15T01:38:20.482Z,2.39
2023-03-15T01:43:24.575Z,2.23
2023-03-15T01:48:28.775Z,2.14
2023-03-15T01:53:32.900Z,1.98
2023-03-15T01:58:37.110Z,1.85
2023-03-15T02:03:41.243Z,1.81
2023-03-15T02:08:45.391Z,1.76
2023-03-15T02:13:49.599Z,1.71
2023-03-15T02:18:53.731Z,1.75
2023-03-15T02:23:57.879Z,1.76
2023-03-15T02:29:02.074Z,1.78
2023-03-15T02:34:06.209Z,1.81
2023-03-15T02:39:10.385Z,1.82
2023-03-15T02:44:12.679Z,1.89
2023-03-15T02:49:16.829Z,1.92
2023-03-15T02:54:19.097Z,1.96
2023-03-15T02:59:23.260Z,1.97
2023-03-15T03:04:27.440Z,1.99
2023-03-15T03:09:29.669Z,2.00
2023-03-15T03:14:33.871Z,1.98
2023-03-15T03:19:38.014Z,1.93
2023-03-15T03:24:42.185Z,1.89
2023-03-15T03:29:46.349Z,1.84
2023-03-15T03:34:50.592Z,1.82
2023-03-15T03:39:54.708Z,1.82
2023-03-15T03:44:58.857Z,1.83
2023-03-15T03:55:07.175Z,1.88
2023-03-15T04:00:11.345Z,1.90
2023-03-15T04:05:15.524Z,1.92
2023-03-15T04:10:19.658Z,1.93
2023-03-15T04:20:28.005Z,1.94
2023-03-15T04:25:30.292Z,1.93
2023-03-15T04:30:32.710Z,1.90
2023-03-15T04:35:43.789Z,1.91
2023-03-15T04:40:54.929Z,1.91
2023-03-15T04:46:06.092Z,1.85
2023-03-15T04:51:17.247Z,1.82
2023-03-15T04:56:28.404Z,1.80
2023-03-15T05:01:39.577Z,1.80
2023-03-15T05:06:41.882Z,1.83
2023-03-15T05:11:46.056Z,1.82
2023-03-15T05:16:50.188Z,1.77
2023-03-15T05:21:54.371Z,1.76
2023-03-15T05:26:58.494Z,1.76
2023-03-15T05:32:02.780Z,1.73
2023-03-15T05:37:06.867Z,1.71
2023-03-15T05:42:11.019Z,1.72
2023-03-15T05:47:15.221Z,1.66
2023-03-15T05:52:19.370Z,1.63
2023-03-15T05:57:23.541Z,1.64
2023-03-15T06:02:27.663Z,1.66
2023-03-15T06:07:31.850Z,1.66
2023-03-15T06:12:36.026Z,1.64
2023-03-15T06:17:40.169Z,1.65
2023-03-15T06:22:44.358Z,1.65
2023-03-15T06:27:48.502Z,1.65
2023-03-15T06:32:52.663Z,1.69
2023-03-15T06:37:56.844Z,1.75
2023-03-15T06:43:00.986Z,1.76
2023-03-15T06:48:05.146Z,1.78
2023-03-15T06:53:07.431Z,1.80
2023-03-15T06:58:11.588Z,1.82
2023-03-15T07:03:13.880Z,1.91
2023-03-15T07:08:18.054Z,1.94
2023-03-15T07:13:22.180Z,1.93
2023-03-15T07:18:26.339Z,1.97
2023-03-15T07:23:30.551Z,2.09
2023-03-15T07:28:34.733Z,2.13
2023-03-15T07:33:38.871Z,2.21
2023-03-15T07:38:43.416Z,2.29
2023-03-15T07:43:47.161Z,2.39
2023-03-15T07:48:51.350Z,2.49
2023-03-15T07:53:55.532Z,2.51
2023-03-15T07:58:59.664Z,2.49
2023-03-15T08:04:03.859Z,2.90
2023-03-15T08:09:08.002Z,3.08
2023-03-15T08:14:12.182Z,3.38
2023-03-15T08:19:16.313Z,3.62
2023-03-15T08:24:20.482Z,3.74
2023-03-15T08:29:24.687Z,3.82
2023-03-15T08:34:28.836Z,3.75
2023-03-15T08:39:32.965Z,3.60
2023-03-15T08:44:37.143Z,3.47
2023-03-15T08:49:39.408Z,3.57
2023-03-15T08:54:43.564Z,3.66
2023-03-15T08:59:47.780Z,3.67
2023-03-15T09:04:52.387Z,3.78
2023-03-15T09:09:54.188Z,4.00
2023-03-15T09:14:58.316Z,4.09
2023-03-15T09:20:02.524Z,4.35
2023-03-15T09:25:06.696Z,4.30
2023-03-15T09:30:10.862Z,4.55
2023-03-15T09:35:15.028Z,4.79
2023-03-15T09:40:19.161Z,4.59
2023-03-15T09:45:23.329Z,4.64
2023-03-15T09:50:27.480Z,4.89
2023-03-15T09:55:31.693Z,4.84
2023-03-15T10:00:35.824Z,4.74
2023-03-15T10:05:39.996Z,4.61
2023-03-15T10:10:44.183Z,4.87
2023-03-15T10:15:48.334Z,5.10
2023-03-15T10:20:52.496Z,5.20
2023-03-15T10:25:56.661Z,5.47
2023-03-15T10:31:00.896Z,5.69
2023-03-15T10:36:11.098Z,5.88
2023-03-15T10:41:10.007Z,6.10
2023-03-15T10:46:13.354Z,6.13
2023-03-15T10:51:15.590Z,6.27
2023-03-15T10:56:19.763Z,6.41
2023-03-15T11:01:22.066Z,6.54
2023-03-15T11:06:26.160Z,7.19
2023-03-15T11:11:30.336Z,7.05
2023-03-15T11:16:34.536Z,6.80
2023-03-15T11:21:38.632Z,7.13
2023-03-15T11:26:42.799Z,6.52
2023-03-15T11:31:47.063Z,6.41
2023-03-15T11:37:05.351Z,6.81
2023-03-15T11:46:59.529Z,7.41
2023-03-15T11:52:03.630Z,7.18
2023-03-15T11:57:07.795Z,6.76
2023-03-15T12:02:12.049Z,6.70
2023-03-15T12:07:16.082Z,6.51
2023-03-15T12:12:20.248Z,6.34
2023-03-15T12:17:24.487Z,6.96
2023-03-15T12:22:28.610Z,7.24
2023-03-15T12:32:36.981Z,7.71
2023-03-15T12:37:39.182Z,7.82
2023-03-15T12:43:14.124Z,7.90
2023-03-15T12:48:01.489Z,8.07
2023-03-15T12:53:12.702Z,8.30
2023-03-15T12:58:23.885Z,8.52
2023-03-15T13:03:35.197Z,8.67
2023-03-15T13:08:46.248Z,8.66
2023-03-15T13:13:55.482Z,8.66
2023-03-15T13:18:59.652Z,8.25
2023-03-15T13:24:03.781Z,8.50
2023-03-15T13:29:07.982Z,8.55
2023-03-15T13:34:12.121Z,8.42
2023-03-15T13:44:20.477Z,8.95
2023-03-15T13:49:24.603Z,9.05
2023-03-15T13:54:28.760Z,9.01
2023-03-15T13:59:32.952Z,9.01
2023-03-15T14:04:37.077Z,8.87
2023-03-15T14:09:41.248Z,8.57
2023-03-15T14:14:45.450Z,8.34
2023-03-15T14:19:49.611Z,7.93
2023-03-15T14:24:53.735Z,7.93
2023-03-15T14:29:57.913Z,8.12
2023-03-15T14:35:02.121Z,8.31
2023-03-15T14:40:06.238Z,8.39
2023-03-15T14:45:10.470Z,8.59
2023-03-15T14:50:14.853Z,8.04
2023-03-15T15:00:22.889Z,8.71
2023-03-15T15:05:29.962Z,8.78
2023-03-15T15:10:29.546Z,8.61
2023-03-15T15:15:40.739Z,8.33
2023-03-15T15:20:35.733Z,8.34
2023-03-15T15:25:39.904Z,8.06
2023-03-15T15:30:44.068Z,8.15
2023-03-15T15:35:48.226Z,8.07
2023-03-15T15:40:52.395Z,7.95
2023-03-15T15:45:56.612Z,7.92
2023-03-15T15:51:00.723Z,7.79
2023-03-15T15:56:05.052Z,7.63
2023-03-15T16:01:09.044Z,7.55
2023-03-15T16:06:13.205Z,7.44
2023-03-15T16:11:17.328Z,7.33
2023-03-15T16:16:21.596Z,7.23
2023-03-15T16:21:25.628Z,7.17
2023-03-15T16:26:29.822Z,7.02
2023-03-15T16:31:34.091Z,6.95
2023-03-15T16:36:38.172Z,7.19
2023-03-15T16:41:42.335Z,7.63
2023-03-15T16:46:46.594Z,8.12
2023-03-15T16:51:50.656Z,8.04
2023-03-15T16:56:54.790Z,7.39
2023-03-15T17:01:59.088Z,6.84
2023-03-15T17:07:01.250Z,6.52
2023-03-15T17:12:05.377Z,6.24
2023-03-15T17:17:07.663Z,5.99
2023-03-15T17:22:11.871Z,5.76
2023-03-15T17:27:16.027Z,5.56
2023-03-15T17:32:20.192Z,5.29
2023-03-15T17:37:24.355Z,4.98
2023-03-15T17:47:32.689Z,4.48
2023-03-15T17:52:36.798Z,4.25
2023-03-15T17:57:45.771Z,4.00
2023-03-15T18:07:58.181Z,3.66
2023-03-15T18:12:53.468Z,3.45
2023-03-15T18:17:57.654Z,3.19
2023-03-15T18:22:59.922Z,2.92
2023-03-15T18:28:11.111Z,2.50
2023-03-15T18:33:22.272Z,2.41
2023-03-15T18:38:33.470Z,2.29
2023-03-15T18:43:44.608Z,2.13
2023-03-15T18:48:55.755Z,1.99
2023-03-15T18:54:06.942Z,1.82
2023-03-15T18:59:09.202Z,1.67
2023-03-15T19:04:13.360Z,1.70
2023-03-15T19:09:17.536Z,1.60
2023-03-15T19:14:21.720Z,1.44
2023-03-15T19:19:25.857Z,1.32
2023-03-15T19:24:30.026Z,1.25
2023-03-15T19:29:34.210Z,1.43
2023-03-15T19:34:38.359Z,1.38
2023-03-15T19:39:42.535Z,1.26
2023-03-15T19:44:46.721Z,1.09
2023-03-15T19:49:50.854Z,1.07
2023-03-15T19:54:55.041Z,1.11
2023-03-15T19:59:59.188Z,1.12
2023-03-15T20:05:03.517Z,1.08
2023-03-15T20:10:07.532Z,1.05
2023-03-15T20:15:11.695Z,0.92
2023-03-15T20:20:15.843Z,0.81
2023-03-15T20:25:20.021Z,0.81
2023-03-15T20:30:24.868Z,0.97
2023-03-15T20:35:28.364Z,1.05
2023-03-15T20:40:32.499Z,1.09
2023-03-15T20:45:34.797Z,1.08
2023-03-15T20:50:38.942Z,1.00
2023-03-15T20:55:43.098Z,1.02
2023-03-15T21:00:47.340Z,0.92
2023-03-15T21:10:55.643Z,1.02
2023-03-15T21:15:59.858Z,1.15
2023-03-15T21:21:03.941Z,1.15
2023-03-15T21:26:08.113Z,1.14
2023-03-15T21:31:10.449Z,1.25
2023-03-15T21:36:14.651Z,1.51
2023-03-15T21:41:18.720Z,1.48
2023-03-15T21:46:22.882Z,1.45
2023-03-15T21:51:27.045Z,1.30
2023-03-15T21:56:31.263Z,1.15
2023-03-15T22:01:35.391Z,1.05
2023-03-15T22:06:39.530Z,1.10
2023-03-15T22:11:43.712Z,1.02
2023-03-15T22:16:47.872Z,0.92
2023-03-15T22:21:52.021Z,0.94
2023-03-15T22:26:56.195Z,0.84
2023-03-15T22:32:00.338Z,0.72
2023-03-15T22:37:02.639Z,0.69
2023-03-15T22:42:06.792Z,0.62
2023-03-15T22:47:09.084Z,0.55
2023-03-15T22:52:13.273Z,0.66
2023-03-15T22:57:17.417Z,0.54
2023-03-15T23:02:21.541Z,0.45
2023-03-15T23:07:25.738Z,0.53
2023-03-15T23:12:35.800Z,0.65
2023-03-15T23:17:34.041Z,0.66
2023-03-15T23:22:38.223Z,0.76
2023-03-15T23:27:42.395Z,0.81
2023-03-15T23:32:46.813Z,0.96
2023-03-15T23:37:50.746Z,0.95
2023-03-15T23:42:54.913Z,0.98
2023-03-15T23:47:59.066Z,1.21
2023-03-15T23:53:03.254Z,1.36
2023-03-15T23:58:07.372Z,1.32
